createdAt,value
2022-12-18T00:01:58.176Z,60.11
2022-12-18T00:04:29.050Z,60.06
2022-12-18T00:06:57.984Z,59.60
2022-12-18T00:09:31.047Z,59.69
2022-12-18T00:14:47.571Z,59.60
2022-12-18T00:17:17.808Z,59.25
2022-12-18T00:19:46.618Z,59.25
2022-12-18T00:22:19.610Z,59.10
2022-12-18T00:24:48.374Z,58.82
2022-12-18T00:27:17.069Z,59.11
2022-12-18T00:29:46.959Z,59.69
2022-12-18T00:32:17.227Z,59.57
2022-12-18T00:34:46.037Z,60.00
2022-12-18T00:37:19.892Z,60.45
2022-12-18T00:39:53.207Z,60.86
2022-12-18T00:42:39.700Z,60.53
2022-12-18T00:45:12.947Z,60.30
2022-12-18T00:49:06.502Z,61.18
2022-12-18T00:51:36.806Z,61.44
2022-12-18T00:54:05.977Z,60.92
2022-12-18T00:56:34.672Z,62.14
2022-12-18T00:59:03.922Z,61.29
2022-12-18T01:01:34.848Z,61.54
2022-12-18T01:04:04.981Z,61.14
2022-12-18T01:06:35.205Z,62.72
2022-12-18T01:09:28.596Z,63.09
2022-12-18T01:11:57.369Z,62.54
2022-12-18T01:14:26.612Z,62.48
2022-12-18T01:16:55.646Z,61.43
2022-12-18T01:19:24.887Z,61.06
2022-12-18T01:21:55.000Z,60.73
2022-12-18T01:24:24.399Z,61.04
2022-12-18T01:26:53.403Z,62.36
2022-12-18T01:29:22.306Z,62.31
2022-12-18T01:31:51.163Z,62.01
2022-12-18T01:34:19.965Z,61.37
2022-12-18T01:36:48.765Z,61.54
2022-12-18T01:39:18.872Z,63.27
2022-12-18T01:42:06.555Z,63.68
2022-12-18T01:45:00.622Z,64.79
2022-12-18T01:47:37.189Z,63.72
2022-12-18T01:50:13.637Z,62.71
2022-12-18T01:52:46.351Z,62.38
2022-12-18T01:55:21.023Z,63.30
2022-12-18T01:57:51.852Z,64.06
2022-12-18T02:00:23.975Z,63.83
2022-12-18T02:02:55.015Z,63.49
2022-12-18T02:05:43.092Z,63.31
2022-12-18T02:08:35.728Z,63.49
2022-12-18T02:11:15.067Z,63.03
2022-12-18T02:13:55.452Z,63.07
2022-12-18T02:16:36.949Z,63.18
2022-12-18T02:19:23.205Z,64.65
2022-12-18T02:22:09.119Z,65.38
2022-12-18T02:24:47.646Z,64.32
2022-12-18T02:27:19.519Z,63.88
2022-12-18T02:29:58.624Z,62.98
2022-12-18T02:32:36.529Z,63.07
2022-12-18T02:35:09.353Z,62.71
2022-12-18T02:37:44.601Z,62.88
2022-12-18T02:40:14.774Z,63.27
2022-12-18T02:42:45.339Z,63.24
2022-12-18T02:45:18.119Z,63.11
2022-12-18T02:47:52.360Z,63.09
2022-12-18T02:50:33.377Z,63.66
2022-12-18T02:53:13.085Z,63.87
2022-12-18T02:55:59.907Z,64.91
2022-12-18T02:58:42.647Z,65.38
2022-12-18T03:01:26.973Z,64.73
2022-12-18T03:04:03.126Z,65.88
2022-12-18T03:06:39.943Z,65.24
2022-12-18T03:09:16.979Z,64.26
2022-12-18T03:12:15.219Z,64.17
2022-12-18T03:14:51.649Z,64.27
2022-12-18T03:17:25.687Z,64.87
2022-12-18T03:20:00.699Z,64.34
2022-12-18T03:22:37.234Z,64.84
2022-12-18T03:25:13.629Z,64.70
2022-12-18T03:27:50.621Z,63.93
2022-12-18T03:30:21.296Z,64.73
2022-12-18T03:33:00.138Z,64.79
2022-12-18T03:35:36.186Z,64.59
2022-12-18T03:38:06.832Z,64.21
2022-12-18T03:40:54.157Z,63.50
2022-12-18T03:43:40.466Z,64.74
2022-12-18T03:46:21.597Z,64.63
2022-12-18T03:49:11.120Z,64.42
2022-12-18T03:51:48.640Z,64.09
2022-12-18T03:54:19.923Z,63.41
2022-12-18T03:57:05.496Z,63.04
2022-12-18T03:59:37.219Z,64.37
2022-12-18T04:02:10.329Z,64.87
2022-12-18T04:04:47.533Z,63.90
2022-12-18T04:07:19.343Z,63.68
2022-12-18T04:09:50.628Z,63.66
2022-12-18T04:13:12.939Z,64.11
2022-12-18T04:15:43.493Z,63.57
2022-12-18T04:18:18.233Z,63.46
2022-12-18T04:20:47.207Z,63.76
2022-12-18T04:23:16.081Z,64.58
2022-12-18T04:25:45.165Z,64.30
2022-12-18T04:28:19.284Z,65.42
2022-12-18T04:30:52.359Z,64.12
2022-12-18T04:33:23.991Z,63.95
2022-12-18T04:35:53.827Z,63.58
2022-12-18T04:38:22.866Z,63.66
2022-12-18T04:40:59.332Z,64.49
2022-12-18T04:43:29.633Z,64.44
2022-12-18T04:46:05.734Z,64.98
2022-12-18T04:48:37.484Z,64.55
2022-12-18T04:51:08.399Z,64.27
2022-12-18T04:53:38.595Z,63.64
2022-12-18T04:56:10.691Z,63.48
2022-12-18T04:58:40.832Z,64.30
2022-12-18T05:01:10.977Z,65.54
2022-12-18T05:03:42.380Z,65.55
2022-12-18T05:06:12.237Z,64.97
2022-12-18T05:08:41.141Z,63.79
2022-12-18T05:11:13.028Z,63.62
2022-12-18T05:13:42.190Z,64.16
2022-12-18T05:16:13.027Z,64.05
2022-12-18T05:18:45.740Z,63.99
2022-12-18T05:21:14.619Z,64.82
2022-12-18T05:23:43.760Z,65.49
2022-12-18T05:26:21.548Z,64.86
2022-12-18T05:28:50.359Z,64.14
2022-12-18T05:31:19.254Z,63.72
2022-12-18T05:33:52.300Z,63.09
2022-12-18T05:36:26.307Z,63.19
2022-12-18T05:38:55.178Z,63.43
2022-12-18T05:41:24.109Z,63.81
2022-12-18T05:43:52.822Z,64.65
2022-12-18T05:46:21.603Z,64.42
2022-12-18T05:48:53.237Z,63.70
2022-12-18T05:51:24.679Z,64.09
2022-12-18T05:53:53.442Z,64.77
2022-12-18T05:56:24.638Z,64.82
2022-12-18T05:58:56.281Z,65.49
2022-12-18T06:01:28.481Z,64.32
2022-12-18T06:03:58.721Z,63.41
2022-12-18T06:06:30.244Z,64.33
2022-12-18T06:08:59.417Z,64.11
2022-12-18T06:11:29.589Z,64.02
2022-12-18T06:14:00.283Z,63.99
2022-12-18T06:16:30.820Z,63.72
2022-12-18T06:19:02.874Z,64.68
2022-12-18T06:21:32.525Z,65.37
2022-12-18T06:24:03.563Z,64.32
2022-12-18T06:26:32.652Z,63.78
2022-12-18T06:29:01.844Z,63.49
2022-12-18T06:31:30.923Z,64.21
2022-12-18T06:34:01.296Z,64.57
2022-12-18T06:36:32.919Z,64.11
2022-12-18T06:39:02.298Z,64.39
2022-12-18T06:41:31.137Z,64.99
2022-12-18T06:44:00.458Z,65.17
2022-12-18T06:46:31.098Z,65.15
2022-12-18T06:49:01.719Z,64.96
2022-12-18T06:51:30.602Z,64.30
2022-12-18T06:53:59.316Z,64.08
2022-12-18T06:56:28.147Z,63.86
2022-12-18T06:58:56.880Z,63.86
2022-12-18T07:01:25.718Z,63.84
2022-12-18T07:03:55.857Z,64.03
2022-12-18T07:06:27.918Z,63.12
2022-12-18T07:08:57.962Z,62.71
2022-12-18T07:11:27.028Z,62.95
2022-12-18T07:14:02.013Z,62.68
2022-12-18T07:16:30.987Z,62.15
2022-12-18T07:19:11.340Z,61.93
2022-12-18T07:21:41.779Z,62.90
2022-12-18T07:24:11.626Z,62.53
2022-12-18T07:26:40.814Z,62.17
2022-12-18T07:29:19.476Z,63.02
2022-12-18T07:31:50.686Z,63.84
2022-12-18T07:34:22.391Z,63.89
2022-12-18T07:36:54.494Z,63.19
2022-12-18T07:39:23.808Z,62.97
2022-12-18T07:42:06.503Z,62.52
2022-12-18T07:44:38.592Z,62.45
2022-12-18T07:47:12.145Z,62.19
2022-12-18T07:49:41.328Z,62.15
2022-12-18T07:52:13.346Z,61.82
2022-12-18T07:56:05.421Z,61.92
2022-12-18T07:58:27.624Z,62.11
2022-12-18T08:00:56.466Z,62.19
2022-12-18T08:03:25.277Z,61.67
2022-12-18T08:05:54.066Z,61.74
2022-12-18T08:08:28.219Z,61.45
2022-12-18T08:10:57.155Z,62.11
2022-12-18T08:13:26.274Z,61.64
2022-12-18T08:16:05.867Z,62.36
2022-12-18T08:19:25.051Z,64.07
2022-12-18T08:21:58.883Z,65.07
2022-12-18T08:24:37.850Z,64.13
2022-12-18T08:27:28.905Z,63.77
2022-12-18T08:29:58.378Z,63.73
2022-12-18T08:32:32.775Z,64.16
2022-12-18T08:35:37.003Z,63.70
2022-12-18T08:38:07.656Z,63.86
2022-12-18T08:40:37.840Z,63.47
2022-12-18T08:43:26.790Z,63.49
2022-12-18T08:45:55.918Z,64.06
2022-12-18T08:48:38.023Z,64.03
2022-12-18T08:51:07.294Z,64.20
2022-12-18T08:53:36.071Z,63.94
2022-12-18T08:56:08.101Z,65.39
2022-12-18T08:58:44.509Z,64.95
2022-12-18T09:02:05.161Z,65.61
2022-12-18T09:04:35.158Z,65.10
2022-12-18T09:07:05.912Z,65.40
2022-12-18T09:09:35.039Z,64.98
2022-12-18T09:12:05.624Z,65.38
2022-12-18T09:14:38.120Z,65.41
2022-12-18T09:17:07.096Z,65.47
2022-12-18T09:19:39.092Z,66.03
2022-12-18T09:22:08.955Z,66.32
2022-12-18T09:24:40.010Z,66.41
2022-12-18T09:27:10.404Z,67.59
2022-12-18T09:29:39.447Z,68.25
2022-12-18T09:32:08.608Z,67.82
2022-12-18T09:34:37.735Z,67.72
2022-12-18T09:37:06.787Z,68.16
2022-12-18T09:39:38.799Z,67.88
2022-12-18T09:42:19.745Z,68.14
2022-12-18T09:44:53.542Z,69.05
2022-12-18T09:47:29.925Z,70.18
2022-12-18T09:50:06.154Z,69.91
2022-12-18T09:52:42.724Z,69.75
2022-12-18T09:55:25.231Z,70.12
2022-12-18T09:58:02.422Z,70.01
2022-12-18T10:00:31.520Z,70.05
2022-12-18T10:03:11.101Z,70.71
2022-12-18T10:05:51.277Z,70.45
2022-12-18T10:08:31.693Z,70.70
2022-12-18T10:11:23.542Z,70.42
2022-12-18T10:14:00.060Z,71.09
2022-12-18T10:16:38.792Z,71.09
2022-12-18T10:19:26.433Z,71.75
2022-12-18T10:22:13.354Z,72.40
2022-12-18T10:25:21.379Z,73.62
2022-12-18T10:27:53.941Z,73.71
2022-12-18T10:30:35.232Z,74.25
2022-12-18T10:33:04.911Z,73.23
2022-12-18T10:35:37.295Z,73.21
2022-12-18T10:38:22.770Z,73.67
2022-12-18T10:40:55.180Z,73.05
2022-12-18T10:43:28.221Z,73.98
2022-12-18T10:46:17.037Z,73.29
2022-12-18T10:48:57.225Z,73.40
2022-12-18T10:51:31.747Z,73.49
2022-12-18T10:54:06.205Z,73.27
2022-12-18T10:56:39.522Z,74.31
2022-12-18T10:59:24.265Z,74.44
2022-12-18T11:02:00.358Z,74.29
2022-12-18T11:04:31.984Z,74.37
2022-12-18T11:07:05.151Z,74.25
2022-12-18T11:09:37.495Z,74.32
2022-12-18T11:12:19.092Z,75.11
2022-12-18T11:14:52.909Z,75.71
2022-12-18T11:17:27.474Z,75.52
2022-12-18T11:19:59.361Z,75.70
2022-12-18T11:22:31.455Z,76.07
2022-12-18T11:28:00.553Z,75.70
2022-12-18T11:30:32.620Z,75.87
2022-12-18T11:33:12.494Z,75.90
2022-12-18T11:35:52.277Z,75.81
2022-12-18T11:38:26.415Z,76.01
2022-12-18T11:41:02.819Z,76.44
2022-12-18T11:43:40.528Z,76.29
2022-12-18T11:46:21.368Z,76.38
2022-12-18T11:49:01.101Z,77.04
2022-12-18T11:51:37.547Z,77.57
2022-12-18T11:54:15.152Z,77.64
2022-12-18T11:56:51.457Z,77.88
2022-12-18T11:59:35.450Z,77.92
2022-12-18T12:02:32.183Z,77.68
2022-12-18T12:05:35.460Z,77.48
2022-12-18T12:08:21.224Z,77.76
2022-12-18T12:11:04.356Z,78.13
2022-12-18T12:13:52.500Z,78.29
2022-12-18T12:16:35.356Z,78.29
2022-12-18T12:19:39.125Z,78.58
2022-12-18T12:22:23.314Z,78.65
2022-12-18T12:25:15.802Z,78.50
2022-12-18T12:28:06.182Z,78.32
2022-12-18T12:30:51.496Z,78.32
2022-12-18T12:33:38.899Z,78.48
2022-12-18T12:36:21.359Z,79.01
2022-12-18T12:39:00.880Z,79.51
2022-12-18T12:41:52.614Z,79.09
2022-12-18T12:44:29.712Z,78.80
2022-12-18T12:47:17.606Z,78.83
2022-12-18T12:49:50.244Z,79.02
2022-12-18T12:52:33.392Z,79.05
2022-12-18T12:55:14.841Z,79.59
2022-12-18T12:57:54.030Z,79.67
2022-12-18T13:00:25.377Z,79.30
2022-12-18T13:03:02.050Z,79.31
2022-12-18T13:05:42.688Z,78.96
2022-12-18T13:08:24.678Z,78.89
2022-12-18T13:11:19.659Z,78.81
2022-12-18T13:13:53.688Z,78.51
2022-12-18T13:16:26.241Z,78.31
2022-12-18T13:18:58.070Z,78.19
2022-12-18T13:21:31.737Z,78.16
2022-12-18T13:24:25.116Z,78.18
2022-12-18T13:26:55.908Z,79.08
2022-12-18T13:29:46.482Z,78.95
2022-12-18T13:32:27.725Z,78.99
2022-12-18T13:35:41.114Z,78.81
2022-12-18T13:38:26.013Z,78.87
2022-12-18T13:41:46.953Z,79.17
2022-12-18T13:44:38.540Z,79.51
2022-12-18T13:47:30.852Z,79.61
2022-12-18T13:50:01.646Z,79.49
2022-12-18T13:52:41.662Z,79.79
2022-12-18T13:56:16.479Z,79.21
2022-12-18T13:59:23.247Z,79.21
2022-12-18T14:01:58.359Z,79.09
2022-12-18T14:04:30.632Z,79.30
2022-12-18T14:07:08.787Z,79.39
2022-12-18T14:09:44.164Z,79.08
2022-12-18T14:12:40.829Z,79.03
2022-12-18T14:15:30.176Z,79.08
2022-12-18T14:18:04.947Z,78.96
2022-12-18T14:20:36.433Z,78.88
2022-12-18T14:23:05.740Z,78.91
2022-12-18T14:25:34.736Z,78.96
2022-12-18T14:28:17.768Z,79.10
2022-12-18T14:30:48.971Z,78.89
2022-12-18T14:33:25.215Z,78.52
2022-12-18T14:36:03.140Z,78.43
2022-12-18T14:38:34.486Z,78.24
2022-12-18T14:41:06.846Z,78.27
2022-12-18T14:43:39.111Z,78.44
2022-12-18T14:46:35.068Z,78.23
2022-12-18T14:49:07.921Z,78.07
2022-12-18T14:51:38.580Z,77.81
2022-12-18T14:54:18.936Z,77.62
2022-12-18T14:56:52.409Z,77.68
2022-12-18T14:59:26.896Z,77.82
2022-12-18T15:02:06.163Z,77.67
2022-12-18T15:04:40.442Z,77.31
2022-12-18T15:07:23.272Z,77.26
2022-12-18T15:10:12.640Z,77.28
2022-12-18T15:12:47.036Z,77.22
2022-12-18T15:15:48.236Z,77.31
2022-12-18T15:18:23.012Z,77.55
2022-12-18T15:20:55.964Z,77.58
2022-12-18T15:23:28.845Z,77.18
2022-12-18T15:26:01.553Z,76.77
2022-12-18T15:28:37.474Z,76.71
2022-12-18T15:31:25.624Z,76.82
2022-12-18T15:34:26.319Z,76.50
2022-12-18T15:36:57.333Z,76.49
2022-12-18T15:39:27.073Z,76.05
2022-12-18T15:42:13.715Z,75.95
2022-12-18T15:44:42.704Z,75.82
2022-12-18T15:47:15.930Z,75.72
2022-12-18T15:49:46.404Z,75.51
2022-12-18T15:52:27.093Z,75.90
2022-12-18T15:55:15.910Z,75.45
2022-12-18T15:57:44.779Z,75.23
2022-12-18T16:00:16.518Z,75.15
2022-12-18T16:02:45.701Z,74.99
2022-12-18T16:05:19.709Z,75.56
2022-12-18T16:07:49.140Z,75.41
2022-12-18T16:10:20.540Z,75.50
2022-12-18T16:12:49.939Z,75.41
2022-12-18T16:15:24.247Z,74.92
2022-12-18T16:17:53.905Z,74.64
2022-12-18T16:20:25.336Z,74.80
2022-12-18T16:22:54.760Z,75.18
2022-12-18T16:25:25.843Z,75.32
2022-12-18T16:27:57.363Z,75.22
2022-12-18T16:30:36.064Z,74.85
2022-12-18T16:33:11.172Z,74.71
2022-12-18T16:35:42.849Z,74.90
2022-12-18T16:38:13.308Z,74.72
2022-12-18T16:41:03.142Z,74.59
2022-12-18T16:43:31.943Z,75.03
2022-12-18T16:46:01.989Z,74.64
2022-12-18T16:48:31.033Z,74.42
2022-12-18T16:51:07.896Z,74.49
2022-12-18T16:53:36.811Z,74.36
2022-12-18T16:56:06.091Z,74.36
2022-12-18T16:58:36.100Z,74.83
2022-12-18T17:01:10.607Z,74.93
2022-12-18T17:03:40.950Z,75.02
2022-12-18T17:06:19.769Z,74.64
2022-12-18T17:08:49.409Z,74.47
2022-12-18T17:11:18.282Z,74.58
2022-12-18T17:13:47.453Z,74.55
2022-12-18T17:16:17.615Z,74.50
2022-12-18T17:18:46.697Z,74.43
2022-12-18T17:21:16.644Z,74.32
2022-12-18T17:23:48.206Z,73.95
2022-12-18T17:26:17.337Z,74.50
2022-12-18T17:28:46.405Z,74.58
2022-12-18T17:31:19.548Z,74.92
2022-12-18T17:33:48.854Z,74.54
2022-12-18T17:36:18.921Z,74.25
2022-12-18T17:38:54.486Z,74.65
2022-12-18T17:41:27.205Z,75.08
2022-12-18T17:43:58.487Z,74.76
2022-12-18T17:46:29.733Z,74.43
2022-12-18T17:48:59.831Z,74.06
2022-12-18T17:51:45.499Z,74.53
2022-12-18T17:54:15.997Z,74.55
2022-12-18T17:56:45.905Z,74.80
2022-12-18T17:59:17.467Z,74.67
2022-12-18T18:01:48.164Z,74.54
2022-12-18T18:04:17.400Z,74.58
2022-12-18T18:06:47.289Z,74.46
2022-12-18T18:09:17.797Z,74.48
2022-12-18T18:12:04.654Z,74.38
2022-12-18T18:14:34.043Z,74.43
2022-12-18T18:17:28.183Z,74.35
2022-12-18T18:19:58.107Z,74.39
2022-12-18T18:22:37.364Z,74.12
2022-12-18T18:25:11.769Z,74.19
2022-12-18T18:27:44.258Z,74.50
2022-12-18T18:30:16.558Z,74.41
2022-12-18T18:32:45.601Z,74.60
2022-12-18T18:35:30.937Z,74.51
2022-12-18T18:38:04.565Z,74.39
2022-12-18T18:40:34.979Z,74.56
2022-12-18T18:43:04.428Z,75.09
2022-12-18T18:45:35.042Z,74.92
2022-12-18T18:48:06.694Z,74.83
2022-12-18T18:50:35.849Z,74.79
2022-12-18T18:53:04.754Z,75.65
2022-12-18T18:55:37.712Z,75.22
2022-12-18T18:58:06.612Z,75.13
2022-12-18T19:00:41.829Z,75.33
2022-12-18T19:03:11.249Z,75.34
2022-12-18T19:05:43.056Z,75.24
2022-12-18T19:08:15.022Z,75.14
2022-12-18T19:10:45.371Z,75.45
2022-12-18T19:13:25.370Z,75.65
2022-12-18T19:15:58.020Z,75.97
2022-12-18T19:18:29.036Z,75.86
2022-12-18T19:21:00.381Z,75.57
2022-12-18T19:23:30.638Z,75.62
2022-12-18T19:26:27.013Z,76.18
2022-12-18T19:28:54.244Z,75.93
2022-12-18T19:31:27.039Z,75.89
2022-12-18T19:34:01.138Z,75.73
2022-12-18T19:36:32.120Z,75.72
2022-12-18T19:39:09.969Z,75.87
2022-12-18T19:41:40.609Z,76.25
2022-12-18T19:44:13.627Z,76.50
2022-12-18T19:46:43.542Z,76.22
2022-12-18T19:49:17.719Z,76.07
2022-12-18T19:51:50.661Z,76.15
2022-12-18T19:54:20.577Z,76.42
2022-12-18T19:56:53.260Z,77.52
2022-12-18T19:59:22.810Z,76.94
2022-12-18T20:01:53.919Z,76.78
2022-12-18T20:04:24.126Z,76.92
2022-12-18T20:06:56.381Z,77.57
2022-12-18T20:09:25.949Z,77.32
2022-12-18T20:11:56.770Z,76.93
2022-12-18T20:14:25.540Z,76.96
2022-12-18T20:16:55.352Z,76.90
2022-12-18T20:19:25.173Z,76.83
2022-12-18T20:21:54.120Z,76.64
2022-12-18T20:24:24.077Z,77.00
2022-12-18T20:26:52.936Z,77.12
2022-12-18T20:29:23.337Z,77.08
2022-12-18T20:31:52.676Z,77.40
2022-12-18T20:34:22.156Z,77.41
2022-12-18T20:36:51.553Z,77.40
2022-12-18T20:39:21.310Z,77.63
2022-12-18T20:41:51.045Z,77.94
2022-12-18T20:44:23.885Z,77.81
2022-12-18T20:46:57.951Z,77.93
2022-12-18T20:49:28.724Z,77.89
2022-12-18T20:52:02.416Z,77.64
2022-12-18T20:54:31.285Z,77.51
2022-12-18T20:57:00.150Z,77.66
2022-12-18T20:59:28.910Z,77.76
2022-12-18T21:01:59.287Z,77.89
2022-12-18T21:04:28.160Z,78.04
2022-12-18T21:07:02.338Z,78.00
2022-12-18T21:09:37.107Z,78.16
2022-12-18T21:12:45.332Z,78.71
2022-12-18T21:15:28.741Z,78.63
2022-12-18T21:17:59.108Z,78.91
2022-12-18T21:20:28.000Z,78.62
2022-12-18T21:23:00.254Z,79.19
2022-12-18T21:25:40.784Z,78.83
2022-12-18T21:28:09.484Z,78.74
2022-12-18T21:30:38.351Z,78.58
2022-12-18T21:33:08.596Z,78.82
2022-12-18T21:35:37.348Z,79.01
2022-12-18T21:38:06.085Z,78.89
2022-12-18T21:40:34.920Z,78.95
2022-12-18T21:43:48.173Z,78.58
2022-12-18T21:46:19.702Z,78.58
2022-12-18T21:48:49.940Z,79.18
2022-12-18T21:51:18.747Z,78.98
2022-12-18T21:53:47.405Z,79.29
2022-12-18T21:56:17.950Z,79.10
2022-12-18T21:58:55.451Z,79.17
2022-12-18T22:01:26.184Z,79.26
2022-12-18T22:04:07.750Z,79.61
2022-12-18T22:06:36.876Z,79.37
2022-12-18T22:09:08.109Z,79.20
2022-12-18T22:11:37.600Z,79.19
2022-12-18T22:14:06.421Z,79.14
2022-12-18T22:16:35.567Z,79.17
2022-12-18T22:19:10.237Z,79.02
2022-12-18T22:21:41.549Z,79.31
2022-12-18T22:24:15.568Z,79.23
2022-12-18T22:26:45.551Z,78.97
2022-12-18T22:29:35.603Z,79.49
2022-12-18T22:32:05.786Z,79.93
2022-12-18T22:34:36.838Z,79.67
2022-12-18T22:37:05.823Z,80.01
2022-12-18T22:39:34.629Z,79.50
2022-12-18T22:42:06.619Z,79.56
2022-12-18T22:44:35.415Z,80.20
2022-12-18T22:47:06.441Z,80.33
2022-12-18T22:49:38.907Z,80.20
2022-12-18T22:52:10.581Z,79.81
2022-12-18T22:54:39.654Z,80.07
2022-12-18T22:57:08.665Z,80.51
2022-12-18T22:59:38.437Z,80.74
2022-12-18T23:02:07.284Z,80.44
2022-12-18T23:04:37.785Z,80.85
2022-12-18T23:07:07.348Z,80.54
2022-12-18T23:09:36.491Z,81.24
2022-12-18T23:12:06.070Z,81.41
2022-12-18T23:14:34.829Z,81.15
2022-12-18T23:17:03.597Z,81.03
2022-12-18T23:19:32.474Z,81.18
2022-12-18T23:22:11.368Z,81.20
2022-12-18T23:24:40.442Z,81.29
2022-12-18T23:27:11.912Z,81.58
2022-12-18T23:29:41.602Z,81.50
2022-12-18T23:32:10.401Z,81.36
2022-12-18T23:34:39.171Z,81.64
2022-12-18T23:37:09.727Z,81.39
2022-12-18T23:39:38.595Z,81.61
2022-12-18T23:42:07.503Z,82.09
2022-12-18T23:44:36.273Z,81.94
2022-12-18T23:47:07.158Z,82.13
2022-12-18T23:49:35.986Z,82.10
2022-12-18T23:52:05.229Z,82.21
2022-12-18T23:54:36.461Z,82.38
2022-12-18T23:57:06.740Z,82.26
2022-12-18T23:59:35.789Z,82.59
